Etusivu
METAR-TAF:

METAR-TAF

Lentoasemat :

Pearson Field

Vancouver, Washington, Yhdysvallat

Leveyspiiri: 45-37-24N, Pituuspiiri: 122-39-23W, korkeus merenpinnasta: 7 m

Tämänhetkinen sää

Tämä raportti tehtiin 18 minuuttia sitten, kello 16.53 UTC
Tuuli 3 kn lännestä/lounaasta
Lämpötila 13°C
Kosteus 72%
Ilmanpaine 1008 hPa
Näkyvyys: 16.1 km
Muutamia pilviä 3000 ft:n korkeudessa
Pilvistä 5000 ft:n korkeudessa

METAR: KVUO 191653Z AUTO 25003KT 10SM FEW030 OVC050 13/08 A2976 RMK AO2 SLP076 T01330083

Aika: 10:11 (17:11 UTC)


TAF: puuttuu

Säähavainnot ja -ennusteet yli 4000 lentoasemalta (METAR- ja TAF-raportit).

Käytössä olevat sääasemat on merkitty karttaan keltaisilla ja punaisilla pisteillä.

Aseta hiiri pisteen päälle nähdäksesi sääaseman nimen.

Klikkaa sitten nähdäksesi säähavainnot ja -ennusteet.

Kartan vaihtaminen: klikkaa mustalla rastilla varustettuja vihreitä pisteitä, niin voit zoomata sisään; viivalla varustettua vihreää pistettä, niin voit zoomata ulos tai vihreitä nuolia, niin pääset viereisille kartoille.


METAR-TAF: